sensor_id;sensor_type;location;lat;lon;timestamp;pressure;altitude;pressure_sealevel;temperature;humidity
21742;BME280;11033;47.490;11.116;2023-04-01T00:00:04;92046.66;;;5.27;83.56
21742;BME280;11033;47.490;11.116;2023-04-01T00:02:30;92041.19;;;5.22;84.20
21742;BME280;11033;47.490;11.116;2023-04-01T00:04:56;92035.69;;;5.17;84.84
21742;BME280;11033;47.490;11.116;2023-04-01T00:07:21;92035.16;;;5.22;84.06
21742;BME280;11033;47.490;11.116;2023-04-01T00:09:47;92041.25;;;5.29;83.05
21742;BME280;11033;47.490;11.116;2023-04-01T00:12:12;92036.41;;;5.26;82.31
21742;BME280;11033;47.490;11.116;2023-04-01T00:14:38;92037.22;;;5.26;81.70
21742;BME280;11033;47.490;11.116;2023-04-01T00:17:04;92025.28;;;5.02;83.62
21742;BME280;11033;47.490;11.116;2023-04-01T00:19:30;92040.22;;;5.08;83.56
21742;BME280;11033;47.490;11.116;2023-04-01T00:21:56;92032.75;;;5.05;83.56
21742;BME280;11033;47.490;11.116;2023-04-01T00:24:22;92034.47;;;4.98;84.97
21742;BME280;11033;47.490;11.116;2023-04-01T00:26:47;92026.84;;;4.97;85.51
21742;BME280;11033;47.490;11.116;2023-04-01T00:29:13;92024.41;;;4.95;85.35
21742;BME280;11033;47.490;11.116;2023-04-01T00:31:38;92022.78;;;4.94;84.19
21742;BME280;11033;47.490;11.116;2023-04-01T00:34:03;92014.03;;;4.81;85.47
21742;BME280;11033;47.490;11.116;2023-04-01T00:36:29;92010.59;;;4.80;85.24
21742;BME280;11033;47.490;11.116;2023-04-01T00:38:54;91998.91;;;4.76;85.20
21742;BME280;11033;47.490;11.116;2023-04-01T00:41:20;92009.19;;;4.63;86.13
21742;BME280;11033;47.490;11.116;2023-04-01T00:43:49;92007.66;;;4.68;85.75
21742;BME280;11033;47.490;11.116;2023-04-01T00:46:15;92003.09;;;4.56;86.18
21742;BME280;11033;47.490;11.116;2023-04-01T00:48:54;92000.22;;;4.51;85.67
21742;BME280;11033;47.490;11.116;2023-04-01T00:51:23;92000.84;;;4.53;85.40
21742;BME280;11033;47.490;11.116;2023-04-01T00:53:51;91999.31;;;4.43;85.53
21742;BME280;11033;47.490;11.116;2023-04-01T00:56:21;92006.44;;;4.35;86.15
21742;BME280;11033;47.490;11.116;2023-04-01T00:58:52;92004.53;;;4.43;85.93
21742;BME280;11033;47.490;11.116;2023-04-01T01:01:22;92001.84;;;4.37;86.64
21742;BME280;11033;47.490;11.116;2023-04-01T01:03:48;91999.59;;;4.34;86.32
21742;BME280;11033;47.490;11.116;2023-04-01T01:11:40;92005.97;;;4.31;87.42
21742;BME280;11033;47.490;11.116;2023-04-01T01:17:02;91977.69;;;4.28;86.96
21742;BME280;11033;47.490;11.116;2023-04-01T01:19:59;91978.22;;;4.24;87.51
21742;BME280;11033;47.490;11.116;2023-04-01T01:25:18;91976.69;;;4.29;87.19
21742;BME280;11033;47.490;11.116;2023-04-01T01:28:01;91989.91;;;4.28;88.52
21742;BME280;11033;47.490;11.116;2023-04-01T01:30:38;92007.97;;;4.29;87.23
21742;BME280;11033;47.490;11.116;2023-04-01T01:33:20;91995.38;;;4.18;87.51
21742;BME280;11033;47.490;11.116;2023-04-01T01:35:52;92008.41;;;4.33;87.11
21742;BME280;11033;47.490;11.116;2023-04-01T01:38:22;92008.22;;;4.34;87.26
21742;BME280;11033;47.490;11.116;2023-04-01T01:40:50;92002.03;;;4.35;86.95
21742;BME280;11033;47.490;11.116;2023-04-01T01:43:25;92000.78;;;4.31;86.93
21742;BME280;11033;47.490;11.116;2023-04-01T01:45:56;92002.47;;;4.24;87.45
21742;BME280;11033;47.490;11.116;2023-04-01T01:48:24;91989.16;;;4.34;87.34
21742;BME280;11033;47.490;11.116;2023-04-01T01:50:51;92000.78;;;4.31;89.33
21742;BME280;11033;47.490;11.116;2023-04-01T01:53:17;91997.53;;;4.29;87.96
21742;BME280;11033;47.490;11.116;2023-04-01T01:55:45;91994.75;;;4.31;87.93
21742;BME280;11033;47.490;11.116;2023-04-01T01:58:28;91983.69;;;4.29;87.73
21742;BME280;11033;47.490;11.116;2023-04-01T02:00:57;91991.88;;;4.26;88.49
21742;BME280;11033;47.490;11.116;2023-04-01T02:03:25;91996.53;;;4.30;88.56
21742;BME280;11033;47.490;11.116;2023-04-01T02:05:55;91986.59;;;4.19;89.07
21742;BME280;11033;47.490;11.116;2023-04-01T02:08:34;91987.38;;;4.34;89.20
21742;BME280;11033;47.490;11.116;2023-04-01T02:11:05;91976.31;;;4.32;88.40
21742;BME280;11033;47.490;11.116;2023-04-01T02:13:40;91996.81;;;4.35;88.88
21742;BME280;11033;47.490;11.116;2023-04-01T02:16:18;91990.34;;;4.31;88.98
21742;BME280;11033;47.490;11.116;2023-04-01T02:18:48;91994.47;;;4.40;88.99
21742;BME280;11033;47.490;11.116;2023-04-01T02:21:16;92007.41;;;4.49;88.16
21742;BME280;11033;47.490;11.116;2023-04-01T02:23:44;92008.66;;;4.53;87.02
21742;BME280;11033;47.490;11.116;2023-04-01T02:26:11;92016.41;;;4.61;86.92
21742;BME280;11033;47.490;11.116;2023-04-01T02:28:38;92009.13;;;4.56;87.49
21742;BME280;11033;47.490;11.116;2023-04-01T02:31:05;92027.81;;;4.60;87.64
21742;BME280;11033;47.490;11.116;2023-04-01T02:33:32;92027.38;;;4.56;88.47
21742;BME280;11033;47.490;11.116;2023-04-01T02:35:58;92033.28;;;4.65;88.72
21742;BME280;11033;47.490;11.116;2023-04-01T02:38:24;92035.81;;;4.73;89.69
21742;BME280;11033;47.490;11.116;2023-04-01T02:40:56;92033.81;;;4.75;89.57
21742;BME280;11033;47.490;11.116;2023-04-01T02:43:21;92035.34;;;4.69;91.12
21742;BME280;11033;47.490;11.116;2023-04-01T02:45:47;92038.22;;;4.74;91.47
21742;BME280;11033;47.490;11.116;2023-04-01T02:48:12;92034.34;;;4.85;89.89
21742;BME280;11033;47.490;11.116;2023-04-01T02:50:39;92039.28;;;4.80;91.02
21742;BME280;11033;47.490;11.116;2023-04-01T02:53:05;92044.50;;;4.80;92.68
21742;BME280;11033;47.490;11.116;2023-04-01T02:55:31;92041.16;;;4.86;90.91
21742;BME280;11033;47.490;11.116;2023-04-01T02:57:56;92038.81;;;4.91;90.99
21742;BME280;11033;47.490;11.116;2023-04-01T03:00:22;92038.44;;;4.94;89.17
21742;BME280;11033;47.490;11.116;2023-04-01T03:02:48;92042.31;;;4.98;89.01
21742;BME280;11033;47.490;11.116;2023-04-01T03:05:13;92036.75;;;4.87;89.96
21742;BME280;11033;47.490;11.116;2023-04-01T03:07:38;92033.09;;;4.81;91.73
21742;BME280;11033;47.490;11.116;2023-04-01T03:10:05;92038.19;;;4.89;90.49
21742;BME280;11033;47.490;11.116;2023-04-01T03:12:30;92030.38;;;4.89;91.79
21742;BME280;11033;47.490;11.116;2023-04-01T03:14:56;92031.97;;;4.90;91.66
21742;BME280;11033;47.490;11.116;2023-04-01T03:17:21;92040.88;;;4.96;91.40
21742;BME280;11033;47.490;11.116;2023-04-01T03:19:46;92029.13;;;4.85;92.52
21742;BME280;11033;47.490;11.116;2023-04-01T03:22:12;92032.34;;;4.87;92.02
21742;BME280;11033;47.490;11.116;2023-04-01T03:24:37;92040.44;;;4.92;91.35
21742;BME280;11033;47.490;11.116;2023-04-01T03:27:02;92034.59;;;4.90;91.26
21742;BME280;11033;47.490;11.116;2023-04-01T03:29:28;92042.41;;;4.90;91.92
21742;BME280;11033;47.490;11.116;2023-04-01T03:31:53;92047.63;;;4.90;91.84
21742;BME280;11033;47.490;11.116;2023-04-01T03:34:18;92049.63;;;4.88;90.73
21742;BME280;11033;47.490;11.116;2023-04-01T03:36:43;92045.88;;;4.76;91.18
21742;BME280;11033;47.490;11.116;2023-04-01T03:39:09;92058.28;;;4.74;91.91
21742;BME280;11033;47.490;11.116;2023-04-01T03:41:36;92053.22;;;4.87;90.20
21742;BME280;11033;47.490;11.116;2023-04-01T03:44:02;92061.50;;;4.76;90.70
21742;BME280;11033;47.490;11.116;2023-04-01T03:46:28;92057.19;;;4.83;90.71
21742;BME280;11033;47.490;11.116;2023-04-01T03:48:53;92050.19;;;4.69;90.99
21742;BME280;11033;47.490;11.116;2023-04-01T03:51:18;92061.00;;;4.66;92.51
21742;BME280;11033;47.490;11.116;2023-04-01T03:53:43;92070.06;;;4.70;91.82
21742;BME280;11033;47.490;11.116;2023-04-01T03:56:09;92082.03;;;4.79;91.13
21742;BME280;11033;47.490;11.116;2023-04-01T03:58:35;92071.06;;;4.69;91.66
21742;BME280;11033;47.490;11.116;2023-04-01T04:01:00;92073.56;;;4.77;90.67
21742;BME280;11033;47.490;11.116;2023-04-01T04:03:26;92080.88;;;4.67;91.91
21742;BME280;11033;47.490;11.116;2023-04-01T04:05:52;92076.63;;;4.66;90.86
21742;BME280;11033;47.490;11.116;2023-04-01T04:08:17;92096.78;;;4.72;90.99
21742;BME280;11033;47.490;11.116;2023-04-01T04:10:43;92077.72;;;4.57;93.02
21742;BME280;11033;47.490;11.116;2023-04-01T04:13:08;92080.50;;;4.70;91.44
21742;BME280;11033;47.490;11.116;2023-04-01T04:15:33;92064.22;;;4.68;91.46
21742;BME280;11033;47.490;11.116;2023-04-01T04:17:59;92065.84;;;4.69;92.03
21742;BME280;11033;47.490;11.116;2023-04-01T04:20:24;92057.84;;;4.70;90.99
21742;BME280;11033;47.490;11.116;2023-04-01T04:22:50;92062.69;;;4.73;90.78
21742;BME280;11033;47.490;11.116;2023-04-01T04:25:15;92069.09;;;4.71;90.96
21742;BME280;11033;47.490;11.116;2023-04-01T04:27:40;92067.47;;;4.70;91.79
21742;BME280;11033;47.490;11.116;2023-04-01T04:30:07;92064.22;;;4.68;91.78
21742;BME280;11033;47.490;11.116;2023-04-01T04:32:32;92069.25;;;4.55;93.29
21742;BME280;11033;47.490;11.116;2023-04-01T04:34:58;92080.88;;;4.67;92.82
21742;BME280;11033;47.490;11.116;2023-04-01T04:37:23;92078.97;;;4.61;94.02
21742;BME280;11033;47.490;11.116;2023-04-01T04:39:50;92078.00;;;4.62;93.67
21742;BME280;11033;47.490;11.116;2023-04-01T04:42:16;92083.03;;;4.63;93.24
21742;BME280;11033;47.490;11.116;2023-04-01T04:44:41;92092.19;;;4.44;94.75
21742;BME280;11033;47.490;11.116;2023-04-01T04:47:06;92088.84;;;4.51;95.64
21742;BME280;11033;47.490;11.116;2023-04-01T04:49:32;92087.16;;;4.58;94.79
21742;BME280;11033;47.490;11.116;2023-04-01T04:51:57;92098.00;;;4.46;95.23
21742;BME280;11033;47.490;11.116;2023-04-01T04:54:22;92094.00;;;4.59;96.10
21742;BME280;11033;47.490;11.116;2023-04-01T04:56:48;92093.53;;;4.70;94.61
21742;BME280;11033;47.490;11.116;2023-04-01T04:59:13;92094.00;;;4.73;94.96
21742;BME280;11033;47.490;11.116;2023-04-01T05:01:38;92094.81;;;4.74;94.89
21742;BME280;11033;47.490;11.116;2023-04-01T05:04:04;92095.97;;;4.71;95.42
21742;BME280;11033;47.490;11.116;2023-04-01T05:06:30;92102.81;;;4.72;95.34
21742;BME280;11033;47.490;11.116;2023-04-01T05:08:56;92095.97;;;4.71;95.06
21742;BME280;11033;47.490;11.116;2023-04-01T05:11:22;92102.00;;;4.72;95.84
21742;BME280;11033;47.490;11.116;2023-04-01T05:13:47;92102.44;;;4.75;96.46
21742;BME280;11033;47.490;11.116;2023-04-01T05:16:15;92095.44;;;4.76;96.91
21742;BME280;11033;47.490;11.116;2023-04-01T05:18:41;92104.78;;;4.85;93.65
21742;BME280;11033;47.490;11.116;2023-04-01T05:21:08;92106.38;;;4.86;93.34
21742;BME280;11033;47.490;11.116;2023-04-01T05:23:34;92106.38;;;4.86;94.36
21742;BME280;11033;47.490;11.116;2023-04-01T05:26:08;92101.00;;;4.88;93.00
21742;BME280;11033;47.490;11.116;2023-04-01T05:28:34;92105.56;;;4.86;94.18
21742;BME280;11033;47.490;11.116;2023-04-01T05:31:00;92110.63;;;4.87;95.39
21742;BME280;11033;47.490;11.116;2023-04-01T05:33:26;92101.44;;;4.91;96.70
21742;BME280;11033;47.490;11.116;2023-04-01T05:35:52;92109.34;;;4.83;95.91
21742;BME280;11033;47.490;11.116;2023-04-01T05:38:18;92100.00;;;4.89;94.89
21742;BME280;11033;47.490;11.116;2023-04-01T05:40:43;92107.19;;;4.87;94.88
21742;BME280;11033;47.490;11.116;2023-04-01T05:43:09;92109.19;;;4.85;96.68
21742;BME280;11033;47.490;11.116;2023-04-01T05:45:34;92112.69;;;4.77;96.20
21742;BME280;11033;47.490;11.116;2023-04-01T05:47:59;92115.28;;;4.92;94.44
21742;BME280;11033;47.490;11.116;2023-04-01T05:50:25;92114.19;;;5.01;93.85
21742;BME280;11033;47.490;11.116;2023-04-01T05:52:50;92108.00;;;4.87;95.58
21742;BME280;11033;47.490;11.116;2023-04-01T05:55:16;92110.50;;;4.95;96.46
21742;BME280;11033;47.490;11.116;2023-04-01T05:57:41;92124.44;;;5.02;95.79
21742;BME280;11033;47.490;11.116;2023-04-01T06:00:07;92118.50;;;5.08;96.00
21742;BME280;11033;47.490;11.116;2023-04-01T06:02:32;92120.19;;;5.16;95.42
21742;BME280;11033;47.490;11.116;2023-04-01T06:05:17;92115.06;;;5.23;94.35
21742;BME280;11033;47.490;11.116;2023-04-01T06:07:43;92113.16;;;5.17;94.98
21742;BME280;11033;47.490;11.116;2023-04-01T06:10:19;92119.00;;;5.33;94.53
21742;BME280;11033;47.490;11.116;2023-04-01T06:15:36;92103.16;;;5.35;94.14
21742;BME280;11033;47.490;11.116;2023-04-01T06:18:36;92078.31;;;5.39;93.87
21742;BME280;11033;47.490;11.116;2023-04-01T06:24:14;92071.97;;;5.48;96.51
21742;BME280;11033;47.490;11.116;2023-04-01T06:27:13;92067.59;;;5.55;95.96
21742;BME280;11033;47.490;11.116;2023-04-01T06:30:38;92050.56;;;5.59;95.04
21742;BME280;11033;47.490;11.116;2023-04-01T06:33:35;92049.81;;;5.65;94.21
21742;BME280;11033;47.490;11.116;2023-04-01T06:36:25;92050.94;;;5.78;93.19
21742;BME280;11033;47.490;11.116;2023-04-01T06:44:57;92057.31;;;5.90;92.07
21742;BME280;11033;47.490;11.116;2023-04-01T06:50:41;92074.47;;;5.99;92.14
21742;BME280;11033;47.490;11.116;2023-04-01T06:56:11;92093.69;;;6.13;89.08
21742;BME280;11033;47.490;11.116;2023-04-01T06:58:46;92098.34;;;6.17;88.36
21742;BME280;11033;47.490;11.116;2023-04-01T07:01:18;92097.19;;;6.26;88.51
21742;BME280;11033;47.490;11.116;2023-04-01T07:04:09;92083.34;;;6.32;88.55
21742;BME280;11033;47.490;11.116;2023-04-01T07:06:41;92088.44;;;6.41;88.79
21742;BME280;11033;47.490;11.116;2023-04-01T07:09:14;92098.59;;;6.50;87.68
21742;BME280;11033;47.490;11.116;2023-04-01T07:11:41;92099.41;;;6.51;86.10
21742;BME280;11033;47.490;11.116;2023-04-01T07:14:19;92106.09;;;6.60;85.32
21742;BME280;11033;47.490;11.116;2023-04-01T07:16:52;92106.75;;;6.68;85.18
21742;BME280;11033;47.490;11.116;2023-04-01T07:19:33;92108.22;;;6.78;85.61
21742;BME280;11033;47.490;11.116;2023-04-01T07:24:53;92117.09;;;6.83;81.17
21742;BME280;11033;47.490;11.116;2023-04-01T07:27:18;92119.75;;;6.90;81.65
21742;BME280;11033;47.490;11.116;2023-04-01T07:29:44;92116.56;;;6.94;81.75
21742;BME280;11033;47.490;11.116;2023-04-01T07:32:39;92116.38;;;6.96;81.62
21742;BME280;11033;47.490;11.116;2023-04-01T07:35:30;92117.78;;;6.98;79.26
21742;BME280;11033;47.490;11.116;2023-04-01T07:50:00;92100.78;;;7.16;76.23
21742;BME280;11033;47.490;11.116;2023-04-01T07:52:31;92106.22;;;7.21;75.51
21742;BME280;11033;47.490;11.116;2023-04-01T08:00:12;92102.44;;;7.30;74.23
21742;BME280;11033;47.490;11.116;2023-04-01T08:05:26;92099.66;;;7.45;75.80
21742;BME280;11033;47.490;11.116;2023-04-01T08:10:55;92100.09;;;7.61;76.68
21742;BME280;11033;47.490;11.116;2023-04-01T08:16:35;92103.59;;;7.82;75.02
21742;BME280;11033;47.490;11.116;2023-04-01T08:21:32;92089.50;;;7.83;73.76
21742;BME280;11033;47.490;11.116;2023-04-01T08:24:13;92094.34;;;7.92;72.67
21742;BME280;11033;47.490;11.116;2023-04-01T08:26:45;92084.06;;;7.98;73.09
21742;BME280;11033;47.490;11.116;2023-04-01T08:29:22;92084.66;;;8.06;72.42
21742;BME280;11033;47.490;11.116;2023-04-01T08:34:23;92087.91;;;8.21;73.33
21742;BME280;11033;47.490;11.116;2023-04-01T08:36:58;92083.66;;;8.20;70.76
21742;BME280;11033;47.490;11.116;2023-04-01T08:39:31;92067.31;;;8.32;73.02
21742;BME280;11033;47.490;11.116;2023-04-01T08:53:17;92060.00;;;8.86;70.69
21742;BME280;11033;47.490;11.116;2023-04-01T08:56:06;92056.53;;;8.93;70.40
21742;BME280;11033;47.490;11.116;2023-04-01T09:01:25;92054.25;;;9.16;68.92
21742;BME280;11033;47.490;11.116;2023-04-01T09:17:53;92039.22;;;9.68;64.83
21742;BME280;11033;47.490;11.116;2023-04-01T09:40:09;92017.16;;;10.75;62.57
21742;BME280;11033;47.490;11.116;2023-04-01T09:51:36;92016.19;;;11.24;62.43
21742;BME280;11033;47.490;11.116;2023-04-01T09:54:26;92010.75;;;11.37;61.11
21742;BME280;11033;47.490;11.116;2023-04-01T09:59:56;92012.44;;;11.62;58.04
21742;BME280;11033;47.490;11.116;2023-04-01T10:02:54;92008.22;;;11.79;58.08
21742;BME280;11033;47.490;11.116;2023-04-01T10:27:47;91988.78;;;12.85;49.18
21742;BME280;11033;47.490;11.116;2023-04-01T10:33:23;92008.63;;;12.99;48.25
21742;BME280;11033;47.490;11.116;2023-04-01T10:53:09;91993.56;;;13.23;45.71
21742;BME280;11033;47.490;11.116;2023-04-01T11:01:27;91973.69;;;12.97;45.67
21742;BME280;11033;47.490;11.116;2023-04-01T11:15:46;91981.78;;;13.43;45.67
21742;BME280;11033;47.490;11.116;2023-04-01T11:18:49;91988.31;;;13.80;47.62
21742;BME280;11033;47.490;11.116;2023-04-01T11:29:34;91975.34;;;13.95;47.32
21742;BME280;11033;47.490;11.116;2023-04-01T11:32:12;91980.25;;;14.04;47.67
21742;BME280;11033;47.490;11.116;2023-04-01T11:34:54;91987.28;;;13.98;47.05
21742;BME280;11033;47.490;11.116;2023-04-01T11:40:10;91984.78;;;14.53;48.52
21742;BME280;11033;47.490;11.116;2023-04-01T11:53:55;92011.59;;;13.95;48.13
21742;BME280;11033;47.490;11.116;2023-04-01T12:07:19;92044.28;;;13.20;48.87
21742;BME280;11033;47.490;11.116;2023-04-01T12:09:56;92047.84;;;13.14;48.81
21742;BME280;11033;47.490;11.116;2023-04-01T12:15:19;92036.47;;;13.02;49.37
21742;BME280;11033;47.490;11.116;2023-04-01T12:17:59;92061.63;;;12.93;49.31
21742;BME280;11033;47.490;11.116;2023-04-01T12:21:09;92055.06;;;11.95;49.96
21742;BME280;11033;47.490;11.116;2023-04-01T12:26:59;92052.25;;;12.32;48.95
21742;BME280;11033;47.490;11.116;2023-04-01T12:52:10;92070.81;;;11.35;53.26
21742;BME280;11033;47.490;11.116;2023-04-01T13:10:32;92056.00;;;11.53;53.38
21742;BME280;11033;47.490;11.116;2023-04-01T13:13:08;92055.13;;;11.40;53.67
21742;BME280;11033;47.490;11.116;2023-04-01T13:16:03;92064.81;;;11.28;53.39
21742;BME280;11033;47.490;11.116;2023-04-01T13:24:08;92078.72;;;11.35;53.04
21742;BME280;11033;47.490;11.116;2023-04-01T13:26:58;92078.72;;;11.17;53.24
21742;BME280;11033;47.490;11.116;2023-04-01T13:29:36;92084.84;;;10.93;53.91
21742;BME280;11033;47.490;11.116;2023-04-01T13:40:52;92082.25;;;11.29;54.02
21742;BME280;11033;47.490;11.116;2023-04-01T13:43:27;92082.66;;;11.44;54.29
21742;BME280;11033;47.490;11.116;2023-04-01T13:48:46;92074.03;;;11.19;54.21
21742;BME280;11033;47.490;11.116;2023-04-01T13:51:52;92067.44;;;11.28;54.17
21742;BME280;11033;47.490;11.116;2023-04-01T14:03:14;92060.63;;;11.39;54.63
21742;BME280;11033;47.490;11.116;2023-04-01T14:09:06;92068.03;;;11.12;54.46
21742;BME280;11033;47.490;11.116;2023-04-01T14:11:53;92072.38;;;11.06;55.25
21742;BME280;11033;47.490;11.116;2023-04-01T14:14:35;92067.75;;;11.20;54.74
21742;BME280;11033;47.490;11.116;2023-04-01T14:17:24;92066.22;;;11.13;54.15
21742;BME280;11033;47.490;11.116;2023-04-01T14:20:07;92076.69;;;11.19;54.56
21742;BME280;11033;47.490;11.116;2023-04-01T14:31:49;92066.28;;;11.24;54.18
21742;BME280;11033;47.490;11.116;2023-04-01T14:37:30;92070.25;;;11.15;55.56
21742;BME280;11033;47.490;11.116;2023-04-01T14:40:20;92069.34;;;11.21;56.22
21742;BME280;11033;47.490;11.116;2023-04-01T14:43:20;92069.00;;;11.18;54.62
21742;BME280;11033;47.490;11.116;2023-04-01T14:46:11;92074.31;;;10.93;54.44
21742;BME280;11033;47.490;11.116;2023-04-01T14:48:57;92077.13;;;11.16;55.12
21742;BME280;11033;47.490;11.116;2023-04-01T14:51:36;92071.84;;;11.16;55.46
21742;BME280;11033;47.490;11.116;2023-04-01T14:54:32;92064.97;;;11.15;53.41
21742;BME280;11033;47.490;11.116;2023-04-01T14:57:10;92069.94;;;11.23;54.99
21742;BME280;11033;47.490;11.116;2023-04-01T14:59:40;92066.13;;;11.19;54.25
21742;BME280;11033;47.490;11.116;2023-04-01T15:05:15;92060.31;;;11.47;55.66
21742;BME280;11033;47.490;11.116;2023-04-01T15:08:26;92062.59;;;11.43;55.11
21742;BME280;11033;47.490;11.116;2023-04-01T15:16:36;92066.19;;;11.49;54.34
21742;BME280;11033;47.490;11.116;2023-04-01T15:24:47;92078.28;;;11.20;51.41
21742;BME280;11033;47.490;11.116;2023-04-01T15:27:37;92087.34;;;11.42;54.72
21742;BME280;11033;47.490;11.116;2023-04-01T15:30:16;92083.03;;;11.30;52.76
21742;BME280;11033;47.490;11.116;2023-04-01T15:49:04;92112.13;;;11.41;55.97
21742;BME280;11033;47.490;11.116;2023-04-01T15:57:33;92109.75;;;11.70;54.67
21742;BME280;11033;47.490;11.116;2023-04-01T16:00:19;92115.03;;;11.52;52.09
21742;BME280;11033;47.490;11.116;2023-04-01T16:02:49;92113.13;;;11.40;52.62
21742;BME280;11033;47.490;11.116;2023-04-01T16:07:54;92107.13;;;11.52;52.02
21742;BME280;11033;47.490;11.116;2023-04-01T16:13:20;92108.16;;;11.51;51.69
21742;BME280;11033;47.490;11.116;2023-04-01T16:15:57;92107.13;;;11.52;51.33
21742;BME280;11033;47.490;11.116;2023-04-01T16:21:13;92093.66;;;11.23;52.32
21742;BME280;11033;47.490;11.116;2023-04-01T16:23:50;92111.09;;;11.06;52.23
21742;BME280;11033;47.490;11.116;2023-04-01T16:29:48;92110.91;;;11.01;52.79
21742;BME280;11033;47.490;11.116;2023-04-01T16:32:38;92117.91;;;10.89;50.97
21742;BME280;11033;47.490;11.116;2023-04-01T16:37:50;92127.72;;;10.82;52.02
21742;BME280;11033;47.490;11.116;2023-04-01T16:40:42;92112.44;;;10.65;51.12
21742;BME280;11033;47.490;11.116;2023-04-01T16:45:42;92118.16;;;10.62;51.37
21742;BME280;11033;47.490;11.116;2023-04-01T16:48:15;92125.47;;;10.60;51.69
21742;BME280;11033;47.490;11.116;2023-04-01T16:51:02;92127.25;;;10.35;50.21
21742;BME280;11033;47.490;11.116;2023-04-01T16:56:14;92127.63;;;10.38;51.56
21742;BME280;11033;47.490;11.116;2023-04-01T16:58:59;92130.81;;;10.15;50.64
21742;BME280;11033;47.490;11.116;2023-04-01T17:01:31;92135.63;;;10.18;50.80
21742;BME280;11033;47.490;11.116;2023-04-01T17:06:53;92140.94;;;10.12;52.04
21742;BME280;11033;47.490;11.116;2023-04-01T17:09:45;92136.16;;;10.02;52.94
21742;BME280;11033;47.490;11.116;2023-04-01T17:12:40;92134.28;;;10.09;53.68
21742;BME280;11033;47.490;11.116;2023-04-01T17:15:18;92134.19;;;9.91;53.62
21742;BME280;11033;47.490;11.116;2023-04-01T17:18:00;92142.28;;;9.90;54.67
21742;BME280;11033;47.490;11.116;2023-04-01T17:20:43;92142.50;;;9.88;55.54
21742;BME280;11033;47.490;11.116;2023-04-01T17:29:28;92140.34;;;9.72;56.56
21742;BME280;11033;47.490;11.116;2023-04-01T17:34:37;92144.63;;;9.60;57.63
21742;BME280;11033;47.490;11.116;2023-04-01T17:40:21;92150.13;;;9.51;56.39
21742;BME280;11033;47.490;11.116;2023-04-01T17:43:03;92148.94;;;9.47;57.55
21742;BME280;11033;47.490;11.116;2023-04-01T17:51:14;92175.84;;;9.43;57.76
21742;BME280;11033;47.490;11.116;2023-04-01T17:56:34;92170.41;;;9.31;57.48
21742;BME280;11033;47.490;11.116;2023-04-01T17:59:16;92184.16;;;9.33;58.54
21742;BME280;11033;47.490;11.116;2023-04-01T18:02:15;92200.97;;;9.19;60.72
21742;BME280;11033;47.490;11.116;2023-04-01T18:07:46;92201.78;;;9.13;60.99
21742;BME280;11033;47.490;11.116;2023-04-01T18:10:31;92202.16;;;9.23;60.68
21742;BME280;11033;47.490;11.116;2023-04-01T18:13:44;92205.00;;;9.15;58.42
21742;BME280;11033;47.490;11.116;2023-04-01T18:22:29;92224.81;;;9.04;61.09
21742;BME280;11033;47.490;11.116;2023-04-01T18:27:44;92226.63;;;8.90;62.50
21742;BME280;11033;47.490;11.116;2023-04-01T18:30:30;92235.31;;;8.91;60.69
21742;BME280;11033;47.490;11.116;2023-04-01T18:38:13;92219.56;;;8.71;59.80
21742;BME280;11033;47.490;11.116;2023-04-01T18:40:45;92227.25;;;8.79;59.01
21742;BME280;11033;47.490;11.116;2023-04-01T18:43:43;92221.78;;;8.61;58.75
21742;BME280;11033;47.490;11.116;2023-04-01T18:46:39;92235.09;;;8.53;60.18
21742;BME280;11033;47.490;11.116;2023-04-01T18:49:33;92234.09;;;8.47;59.75
21742;BME280;11033;47.490;11.116;2023-04-01T18:53:00;92242.97;;;8.46;60.53
21742;BME280;11033;47.490;11.116;2023-04-01T18:56:15;92238.53;;;8.47;60.32
21742;BME280;11033;47.490;11.116;2023-04-01T19:04:10;92248.72;;;8.28;61.04
21742;BME280;11033;47.490;11.116;2023-04-01T19:06:55;92256.19;;;8.32;60.23
21742;BME280;11033;47.490;11.116;2023-04-01T19:09:43;92254.56;;;8.31;60.65
21742;BME280;11033;47.490;11.116;2023-04-01T19:12:53;92263.03;;;8.19;61.63
21742;BME280;11033;47.490;11.116;2023-04-01T19:15:27;92268.28;;;8.26;61.74
21742;BME280;11033;47.490;11.116;2023-04-01T19:18:19;92268.88;;;8.21;61.82
21742;BME280;11033;47.490;11.116;2023-04-01T19:20:51;92267.44;;;8.12;61.97
21742;BME280;11033;47.490;11.116;2023-04-01T19:26:25;92272.28;;;8.09;63.08
21742;BME280;11033;47.490;11.116;2023-04-01T19:29:21;92275.94;;;8.14;62.95
21742;BME280;11033;47.490;11.116;2023-04-01T19:37:26;92267.78;;;7.96;63.70
21742;BME280;11033;47.490;11.116;2023-04-01T19:43:19;92274.19;;;7.80;65.26
21742;BME280;11033;47.490;11.116;2023-04-01T19:46:19;92277.44;;;7.89;64.07
21742;BME280;11033;47.490;11.116;2023-04-01T19:49:16;92276.75;;;7.74;64.98
21742;BME280;11033;47.490;11.116;2023-04-01T19:51:56;92277.34;;;7.76;64.71
21742;BME280;11033;47.490;11.116;2023-04-01T19:57:39;92278.50;;;7.60;66.26
21742;BME280;11033;47.490;11.116;2023-04-01T20:01:00;92274.03;;;7.54;66.43
21742;BME280;11033;47.490;11.116;2023-04-01T20:11:13;92281.63;;;7.42;66.69
21742;BME280;11033;47.490;11.116;2023-04-01T20:16:12;92292.41;;;7.26;68.59
21742;BME280;11033;47.490;11.116;2023-04-01T20:18:47;92283.97;;;7.30;66.93
21742;BME280;11033;47.490;11.116;2023-04-01T20:26:43;92283.00;;;7.10;67.50
21742;BME280;11033;47.490;11.116;2023-04-01T20:31:59;92285.22;;;6.85;70.17
21742;BME280;11033;47.490;11.116;2023-04-01T20:34:56;92280.75;;;6.79;70.59
21742;BME280;11033;47.490;11.116;2023-04-01T20:37:35;92284.13;;;6.73;70.49
21742;BME280;11033;47.490;11.116;2023-04-01T20:43:14;92280.50;;;6.53;72.21
21742;BME280;11033;47.490;11.116;2023-04-01T20:45:56;92288.56;;;6.51;71.78
21742;BME280;11033;47.490;11.116;2023-04-01T20:48:44;92288.03;;;6.41;72.01
21742;BME280;11033;47.490;11.116;2023-04-01T20:51:32;92292.44;;;6.41;70.75
21742;BME280;11033;47.490;11.116;2023-04-01T20:54:18;92296.78;;;6.33;72.79